Clyde River Airport
CYCY : rendu visible

Aérodrome :











RETROUVEZ-NOUS SUR...

 
LOGIN :

S'inscrire | Disclaimer

   EN    FR    IT 

 









Légende :    VFR   VFR Marginal   IFR   IFR Intensif   IFR Très Intensif
Visi : 
Plafond : 
>= 8 km
>= 3000ft
5 à 8 km
1000 à 3000 ft
1500m à 5 km
500 à 1000 ft
800 à 1500m
200 à 500 ft
< 800m
< 200 ft
Symboles :   Orages  Brouillard  Fortes neiges  Fortes précipitations  Vent > 20 kt






- Altitude de l'aérodrome : 87 ft
- Code IATA : YCY


CYCY - Clyde River

DERNIER METAR :
  • 161900Z AUTO 25007KT 9SM BKN048 M24/M27 A2920 RMK SLP893

METARs EXPIRÉS :
  • 161800Z AUTO 25007KT 9SM BKN050 OVC065 M24/M26 A2919 RMK SLP891
  • 161700Z AUTO 26007KT 9SM SCT050 SCT075 BKN093 BKN110 M23/M26 A2918 RMK SLP887

TAF TAF CYCY
Valide du 16 à 19h jusqu'au 17 à 07h UTC


161838Z 1619/1707 25008KT P6SM BKN060 RMK FCST BASED ON AUTO OBS. NXT FCST BY 170100Z



MET'MAP, la Météo Aéronautique d'un coup d'oeil ! - Copyright ORBIFLY Décembre 2007 - Disclaimer

ORBIFLY MET'MAP TEAM :

Programmation & Développement : Alexandra Zaïnal
Sur une idée originale de : Baudouin d'Aumeries
Assistance à la programmation : Marc-Olivier Méhu
Soutien technique & logistique : Manuel Goepfert

Contact : metmap@orbifly.com




SOURCES & CREDITS :

   NOAA       Earth
Advisory